Terminal Aerodrome Forecast
Issued by NWS

Home | Current Version | Previous Version | Text Only | Print | Product List | Glossary On
Versions: 1 2 3 4 5 6 7 8 9 10 11 12 13 14 15 16 17 18
000
FTUS41 KCAR 260520
TAFBHB
TAF
KBHB 260520Z 2606/2706 20009KT 6SM -SHRA OVC060
     FM260900 20006KT 2SM -SHRA BR OVC035
     FM261000 21007KT 2SM BR OVC050
     FM261200 22011KT P6SM BKN060
     FM270400 22009KT 1SM BR FEW002 SCT150
      AMD LTD TO CLD VIS AND WIND=

USA.gov is the U.S. government's official web portal to all federal, state and local government web resources and services.